createdAt,value
2018-05-03T00:00:21.199Z,1007.45
2018-05-03T00:01:21.144Z,1007.47
2018-05-03T00:02:21.076Z,1007.44
2018-05-03T00:03:21.021Z,1007.45
2018-05-03T00:04:20.950Z,1007.39
2018-05-03T00:05:20.886Z,1007.39
2018-05-03T00:06:20.832Z,1007.38
2018-05-03T00:07:20.778Z,1007.43
2018-05-03T00:08:20.701Z,1007.38
2018-05-03T00:09:20.639Z,1007.41
2018-05-03T00:10:20.576Z,1007.41
2018-05-03T00:11:20.510Z,1007.39
2018-05-03T00:12:20.448Z,1007.43
2018-05-03T00:13:20.386Z,1007.40
2018-05-03T00:14:20.323Z,1007.37
2018-05-03T00:15:20.259Z,1007.40
2018-05-03T00:16:20.200Z,1007.41
2018-05-03T00:17:20.136Z,1007.45
2018-05-03T00:18:20.163Z,1007.46
2018-05-03T00:19:20.013Z,1007.45
2018-05-03T00:20:19.948Z,1007.47
2018-05-03T00:21:19.901Z,1007.50
2018-05-03T00:22:19.824Z,1007.53
2018-05-03T00:23:19.759Z,1007.49
2018-05-03T00:24:19.695Z,1007.49
2018-05-03T00:25:19.632Z,1007.48
2018-05-03T00:26:19.571Z,1007.45
2018-05-03T00:27:19.508Z,1007.48
2018-05-03T00:28:19.446Z,1007.50
2018-05-03T00:29:19.384Z,1007.48
2018-05-03T00:30:19.320Z,1007.49
2018-05-03T00:31:19.255Z,1007.52
2018-05-03T00:32:19.192Z,1007.54
2018-05-03T00:33:19.136Z,1007.53
2018-05-03T00:34:19.076Z,1007.56
2018-05-03T00:35:19.006Z,1007.49
2018-05-03T00:36:18.945Z,1007.51
2018-05-03T00:37:18.879Z,1007.54
2018-05-03T00:38:18.816Z,1007.56
2018-05-03T00:39:18.755Z,1007.55
2018-05-03T00:40:18.693Z,1007.58
2018-05-03T00:41:18.627Z,1007.64
2018-05-03T00:42:18.568Z,1007.63
2018-05-03T00:43:18.505Z,1007.62
2018-05-03T00:44:18.437Z,1007.67
2018-05-03T00:45:18.375Z,1007.64
2018-05-03T00:46:18.318Z,1007.67
2018-05-03T00:47:18.255Z,1007.66
2018-05-03T00:48:18.192Z,1007.61
2018-05-03T00:49:18.126Z,1007.69
2018-05-03T00:50:18.062Z,1007.73
2018-05-03T00:51:18.001Z,1007.72
2018-05-03T00:52:17.939Z,1007.76
2018-05-03T00:53:17.876Z,1007.74
2018-05-03T00:54:17.814Z,1007.73
2018-05-03T00:55:17.748Z,1007.70
2018-05-03T00:56:17.686Z,1007.75
2018-05-03T00:57:17.622Z,1007.74
2018-05-03T00:58:17.559Z,1007.81
2018-05-03T00:59:17.496Z,1007.84
2018-05-03T01:00:17.437Z,1007.79
2018-05-03T01:01:17.372Z,1007.83
2018-05-03T01:02:17.312Z,1007.83
2018-05-03T01:03:17.246Z,1007.82
2018-05-03T01:04:17.182Z,1007.86
2018-05-03T01:05:17.123Z,1007.86
2018-05-03T01:06:17.057Z,1007.84
2018-05-03T01:07:16.992Z,1007.87
2018-05-03T01:08:16.931Z,1007.87
2018-05-03T01:09:16.878Z,1007.88
2018-05-03T01:10:16.804Z,1007.88
2018-05-03T01:11:16.746Z,1007.91
2018-05-03T01:12:16.685Z,1007.93
2018-05-03T01:13:16.617Z,1007.89
2018-05-03T01:14:16.556Z,1007.91
2018-05-03T01:15:16.495Z,1007.90
2018-05-03T01:16:16.425Z,1007.89
2018-05-03T01:17:16.365Z,1007.85
2018-05-03T01:18:16.312Z,1007.86
2018-05-03T01:19:16.240Z,1007.84
2018-05-03T01:20:16.178Z,1007.82
2018-05-03T01:21:16.116Z,1007.82
2018-05-03T01:22:16.047Z,1007.85
2018-05-03T01:23:15.987Z,1007.88
2018-05-03T01:24:15.928Z,1007.81
2018-05-03T01:25:15.860Z,1007.79
2018-05-03T01:26:15.808Z,1007.77
2018-05-03T01:27:15.737Z,1007.78
2018-05-03T01:28:15.670Z,1007.78
2018-05-03T01:29:15.610Z,1007.78
2018-05-03T01:30:15.547Z,1007.86
2018-05-03T01:31:15.483Z,1007.81
2018-05-03T01:32:15.422Z,1007.84
2018-05-03T01:33:15.361Z,1007.86
2018-05-03T01:34:15.296Z,1007.92
2018-05-03T01:35:15.231Z,1007.89
2018-05-03T01:36:15.169Z,1007.97
2018-05-03T01:37:15.105Z,1007.95
2018-05-03T01:38:15.044Z,1007.91
2018-05-03T01:39:14.980Z,1007.93
2018-05-03T01:40:14.911Z,1007.98
2018-05-03T01:41:14.851Z,1007.96
2018-05-03T01:42:14.789Z,1007.98
2018-05-03T01:43:14.726Z,1007.94
2018-05-03T01:44:14.671Z,1007.97
2018-05-03T01:45:14.602Z,1007.95
2018-05-03T01:46:14.538Z,1007.94
2018-05-03T01:47:14.472Z,1007.98
2018-05-03T01:48:14.411Z,1007.98
2018-05-03T01:49:14.366Z,1007.98
2018-05-03T01:50:14.284Z,1008.00
2018-05-03T01:51:14.223Z,1008.01
2018-05-03T01:52:14.162Z,1008.01
2018-05-03T01:53:14.092Z,1008.00
2018-05-03T01:54:14.033Z,1007.98
2018-05-03T01:55:13.968Z,1007.99
2018-05-03T01:56:13.907Z,1007.98
2018-05-03T01:57:13.843Z,1007.98
2018-05-03T01:58:13.786Z,1007.95
2018-05-03T01:59:13.711Z,1007.95
2018-05-03T02:00:13.660Z,1007.95
2018-05-03T02:01:13.583Z,1007.98
2018-05-03T02:02:13.521Z,1007.94
2018-05-03T02:03:13.467Z,1007.97
2018-05-03T02:04:13.398Z,1007.99
2018-05-03T02:05:13.330Z,1007.97
2018-05-03T02:06:13.270Z,1007.98
2018-05-03T02:07:13.204Z,1007.95
2018-05-03T02:08:13.140Z,1007.94
2018-05-03T02:09:13.076Z,1007.90
2018-05-03T02:10:13.016Z,1007.87
2018-05-03T02:11:12.950Z,1007.83
2018-05-03T02:12:12.891Z,1007.77
2018-05-03T02:13:12.824Z,1007.73
2018-05-03T02:14:12.758Z,1007.76
2018-05-03T02:15:12.695Z,1007.82
2018-05-03T02:16:12.635Z,1007.75
2018-05-03T02:17:12.575Z,1007.72
2018-05-03T02:18:12.505Z,1007.73
2018-05-03T02:19:12.443Z,1007.64
2018-05-03T02:20:12.381Z,1007.65
2018-05-03T02:21:12.314Z,1007.60
2018-05-03T02:22:12.249Z,1007.62
2018-05-03T02:23:12.185Z,1007.54
2018-05-03T02:24:12.127Z,1007.56
2018-05-03T02:25:12.059Z,1007.53
2018-05-03T02:26:11.997Z,1007.51
2018-05-03T02:27:11.931Z,1007.52
2018-05-03T02:28:11.867Z,1007.52
2018-05-03T02:29:11.804Z,1007.49
2018-05-03T02:30:11.741Z,1007.51
2018-05-03T02:31:11.679Z,1007.52
2018-05-03T02:32:11.617Z,1007.46
2018-05-03T02:33:11.577Z,1007.48
2018-05-03T02:34:11.489Z,1007.48
2018-05-03T02:35:11.422Z,1007.42
2018-05-03T02:36:11.360Z,1007.35
2018-05-03T02:37:11.296Z,1007.35
2018-05-03T02:38:11.239Z,1007.28
2018-05-03T02:39:11.171Z,1007.30
2018-05-03T02:40:11.107Z,1007.27
2018-05-03T02:41:11.045Z,1007.27
2018-05-03T02:42:10.980Z,1007.30
2018-05-03T02:43:10.917Z,1007.24
2018-05-03T02:44:10.856Z,1007.25
2018-05-03T02:45:10.791Z,1007.29
2018-05-03T02:46:10.730Z,1007.25
2018-05-03T02:47:10.665Z,1007.20
2018-05-03T02:48:10.614Z,1007.25
2018-05-03T02:49:10.534Z,1007.28
2018-05-03T02:50:10.471Z,1007.26
2018-05-03T02:51:10.422Z,1007.25
2018-05-03T02:52:10.347Z,1007.29
2018-05-03T02:53:10.284Z,1007.27
2018-05-03T02:54:10.221Z,1007.26
2018-05-03T02:55:10.151Z,1007.29
2018-05-03T02:56:10.099Z,1007.32
2018-05-03T02:57:10.037Z,1007.38
2018-05-03T02:58:09.965Z,1007.35
2018-05-03T02:59:09.895Z,1007.40
2018-05-03T03:00:09.840Z,1007.44
2018-05-03T03:01:09.773Z,1007.56
2018-05-03T03:02:09.706Z,1007.56
2018-05-03T03:03:09.645Z,1007.61
2018-05-03T03:04:09.581Z,1007.61
2018-05-03T03:05:09.520Z,1007.64
2018-05-03T03:06:09.457Z,1007.70
2018-05-03T03:07:09.390Z,1007.69
2018-05-03T03:08:09.328Z,1007.68
2018-05-03T03:09:09.263Z,1007.69
2018-05-03T03:10:09.200Z,1007.66
2018-05-03T03:11:09.134Z,1007.59
2018-05-03T03:12:09.075Z,1007.57
2018-05-03T03:13:09.010Z,1007.57
2018-05-03T03:14:08.949Z,1007.55
2018-05-03T03:15:08.881Z,1007.56
2018-05-03T03:16:08.823Z,1007.51
2018-05-03T03:17:08.755Z,1007.50
2018-05-03T03:18:08.692Z,1007.53
2018-05-03T03:19:08.636Z,1007.53
2018-05-03T03:20:08.561Z,1007.56
2018-05-03T03:21:08.500Z,1007.57
2018-05-03T03:22:08.523Z,1007.57
2018-05-03T03:23:08.374Z,1007.59
2018-05-03T03:24:08.310Z,1007.67
2018-05-03T03:25:08.247Z,1007.63
2018-05-03T03:26:08.185Z,1007.65
2018-05-03T03:27:08.116Z,1007.65
2018-05-03T03:28:08.050Z,1007.64
2018-05-03T03:29:07.992Z,1007.69
2018-05-03T03:30:07.928Z,1007.74
2018-05-03T03:31:07.863Z,1007.79
2018-05-03T03:32:07.797Z,1007.83
2018-05-03T03:33:07.736Z,1007.85
2018-05-03T03:34:07.670Z,1007.93
2018-05-03T03:35:07.709Z,1007.87
2018-05-03T03:36:07.546Z,1007.98
2018-05-03T03:37:07.482Z,1008.00
2018-05-03T03:38:07.420Z,1008.00
2018-05-03T03:39:07.355Z,1008.10
2018-05-03T03:40:07.291Z,1008.10
2018-05-03T03:41:07.224Z,1008.11
2018-05-03T03:42:07.165Z,1008.19
2018-05-03T03:43:07.106Z,1008.17
2018-05-03T03:44:07.039Z,1008.19
2018-05-03T03:45:06.973Z,1008.28
2018-05-03T03:46:06.910Z,1008.29
2018-05-03T03:47:06.849Z,1008.22
2018-05-03T03:48:06.784Z,1008.26
2018-05-03T03:49:06.723Z,1008.28
2018-05-03T03:50:06.655Z,1008.28
2018-05-03T03:51:06.593Z,1008.31
2018-05-03T03:52:06.525Z,1008.33
2018-05-03T03:53:06.512Z,1008.33
2018-05-03T03:54:06.403Z,1008.38
2018-05-03T03:55:06.336Z,1008.31
2018-05-03T03:56:06.272Z,1008.25
2018-05-03T03:57:06.209Z,1008.18
2018-05-03T03:58:06.145Z,1008.21
2018-05-03T03:59:06.186Z,1008.18
2018-05-03T04:00:06.016Z,1008.22
2018-05-03T04:01:05.955Z,1008.30
2018-05-03T04:02:05.893Z,1008.36
2018-05-03T04:03:05.823Z,1008.38
2018-05-03T04:04:05.765Z,1008.36
2018-05-03T04:05:05.693Z,1008.38
2018-05-03T04:06:05.635Z,1008.40
2018-05-03T04:07:05.576Z,1008.36
2018-05-03T04:08:05.506Z,1008.38
2018-05-03T04:09:05.448Z,1008.42
2018-05-03T04:10:05.379Z,1008.45
2018-05-03T04:11:05.313Z,1008.50
2018-05-03T04:12:05.252Z,1008.52
2018-05-03T04:13:05.188Z,1008.46
2018-05-03T04:14:05.126Z,1008.39
2018-05-03T04:15:05.063Z,1008.39
2018-05-03T04:16:05.002Z,1008.35
2018-05-03T04:17:04.938Z,1008.37
2018-05-03T04:18:04.867Z,1008.42
2018-05-03T04:19:04.812Z,1008.43
2018-05-03T04:20:04.746Z,1008.47
2018-05-03T04:21:04.679Z,1008.57
2018-05-03T04:22:04.628Z,1008.57
2018-05-03T04:23:04.557Z,1008.53
2018-05-03T04:24:04.487Z,1008.50
2018-05-03T04:25:04.426Z,1008.44
2018-05-03T04:26:04.369Z,1008.42
2018-05-03T04:27:04.301Z,1008.42
2018-05-03T04:28:04.238Z,1008.45
2018-05-03T04:29:04.177Z,1008.52
2018-05-03T04:30:04.111Z,1008.50
2018-05-03T04:31:04.048Z,1008.55
2018-05-03T04:32:03.991Z,1008.60
2018-05-03T04:33:03.919Z,1008.67
2018-05-03T04:34:03.864Z,1008.67
2018-05-03T04:35:03.789Z,1008.65
2018-05-03T04:36:03.726Z,1008.67
2018-05-03T04:37:03.664Z,1008.52
2018-05-03T04:38:03.601Z,1008.51
2018-05-03T04:39:03.538Z,1008.51
2018-05-03T04:40:03.475Z,1008.53
2018-05-03T04:41:03.411Z,1008.53
2018-05-03T04:42:03.349Z,1008.46
2018-05-03T04:43:03.282Z,1008.46
2018-05-03T04:44:03.218Z,1008.43
2018-05-03T04:45:03.155Z,1008.45
2018-05-03T04:46:03.091Z,1008.42
2018-05-03T04:47:03.124Z,1008.44
2018-05-03T04:48:02.966Z,1008.41
2018-05-03T04:49:02.905Z,1008.39
2018-05-03T04:50:02.838Z,1008.43
2018-05-03T04:51:02.781Z,1008.43
2018-05-03T04:52:02.712Z,1008.45
2018-05-03T04:53:02.647Z,1008.47
2018-05-03T04:54:02.594Z,1008.45
2018-05-03T04:55:02.518Z,1008.40
2018-05-03T04:56:02.455Z,1008.35
2018-05-03T04:57:02.391Z,1008.39
2018-05-03T04:58:02.327Z,1008.38
2018-05-03T04:59:02.268Z,1008.36
2018-05-03T05:00:02.203Z,1008.40
2018-05-03T05:01:02.139Z,1008.46
2018-05-03T05:02:02.076Z,1008.43
2018-05-03T05:03:02.008Z,1008.44
2018-05-03T05:04:01.948Z,1008.44
2018-05-03T05:05:01.883Z,1008.46
2018-05-03T05:06:01.830Z,1008.47
2018-05-03T05:07:01.756Z,1008.49
2018-05-03T05:08:01.692Z,1008.50
2018-05-03T05:09:01.629Z,1008.43
2018-05-03T05:10:01.568Z,1008.41
2018-05-03T05:11:01.499Z,1008.39
2018-05-03T05:12:01.439Z,1008.41
2018-05-03T05:13:01.377Z,1008.41
2018-05-03T05:14:01.311Z,1008.38
2018-05-03T05:15:01.244Z,1008.37
2018-05-03T05:16:01.182Z,1008.43
2018-05-03T05:17:01.120Z,1008.44
2018-05-03T05:18:01.142Z,1008.52
2018-05-03T05:19:00.994Z,1008.48
2018-05-03T05:20:00.933Z,1008.50
2018-05-03T05:21:00.865Z,1008.51
2018-05-03T05:22:00.799Z,1008.52
2018-05-03T05:23:00.734Z,1008.61
2018-05-03T05:24:00.687Z,1008.66
2018-05-03T05:25:00.611Z,1008.70
2018-05-03T05:26:00.547Z,1008.77
2018-05-03T05:27:00.482Z,1008.77
2018-05-03T05:28:00.420Z,1008.74
2018-05-03T05:29:00.354Z,1008.73
2018-05-03T05:30:00.294Z,1008.77
2018-05-03T05:31:00.233Z,1008.73
2018-05-03T05:32:00.163Z,1008.78
2018-05-03T05:33:00.097Z,1008.82
2018-05-03T05:34:00.036Z,1008.83
2018-05-03T05:34:59.972Z,1008.79
2018-05-03T05:35:59.912Z,1008.78
2018-05-03T05:36:59.851Z,1008.76
2018-05-03T05:37:59.796Z,1008.74
2018-05-03T05:38:59.762Z,1008.77
2018-05-03T05:39:59.651Z,1008.76
2018-05-03T05:40:59.597Z,1008.81
2018-05-03T05:41:59.552Z,1008.81
2018-05-03T05:42:59.462Z,1008.72
2018-05-03T05:43:59.402Z,1008.74
2018-05-03T05:44:59.337Z,1008.76
2018-05-03T05:45:59.313Z,1008.79
2018-05-03T05:46:59.215Z,1008.75
2018-05-03T05:47:59.145Z,1008.85
2018-05-03T05:48:59.079Z,1008.84
2018-05-03T05:49:59.025Z,1008.86
2018-05-03T05:50:59.020Z,1008.87
2018-05-03T05:51:58.891Z,1008.92
2018-05-03T05:52:58.827Z,1008.95
2018-05-03T05:53:58.768Z,1009.02
2018-05-03T05:54:58.714Z,1009.00
2018-05-03T05:55:58.644Z,1009.04
2018-05-03T05:56:58.580Z,1009.03
2018-05-03T05:57:58.516Z,1009.10
2018-05-03T05:58:58.447Z,1009.17
2018-05-03T05:59:58.385Z,1009.18
2018-05-03T06:00:58.325Z,1009.19
2018-05-03T06:01:58.261Z,1009.24
2018-05-03T06:02:58.198Z,1009.22
2018-05-03T06:03:58.130Z,1009.24
2018-05-03T06:04:58.073Z,1009.27
2018-05-03T06:05:58.010Z,1009.21
2018-05-03T06:06:57.943Z,1009.23
2018-05-03T06:07:57.887Z,1009.18
2018-05-03T06:08:57.830Z,1009.22
2018-05-03T06:09:57.759Z,1009.26
2018-05-03T06:10:57.693Z,1009.20
2018-05-03T06:11:57.628Z,1009.27
2018-05-03T06:12:57.565Z,1009.26
2018-05-03T06:13:57.503Z,1009.25
2018-05-03T06:14:57.443Z,1009.28
2018-05-03T06:15:57.379Z,1009.24
2018-05-03T06:16:57.319Z,1009.20
2018-05-03T06:17:57.254Z,1009.24
2018-05-03T06:18:57.187Z,1009.16
2018-05-03T06:19:57.127Z,1009.21
2018-05-03T06:20:57.061Z,1009.23
2018-05-03T06:21:57.000Z,1009.23
2018-05-03T06:22:56.943Z,1009.26
2018-05-03T06:23:56.884Z,1009.32
2018-05-03T06:24:56.812Z,1009.37
2018-05-03T06:25:56.768Z,1009.38
2018-05-03T06:26:56.694Z,1009.36
2018-05-03T06:27:56.625Z,1009.40
2018-05-03T06:28:56.569Z,1009.44
2018-05-03T06:29:56.515Z,1009.49
2018-05-03T06:30:56.435Z,1009.55
2018-05-03T06:31:56.376Z,1009.57
2018-05-03T06:32:56.322Z,1009.54
2018-05-03T06:33:56.248Z,1009.54
2018-05-03T06:34:56.189Z,1009.56
2018-05-03T06:35:56.139Z,1009.59
2018-05-03T06:36:56.061Z,1009.59
2018-05-03T06:37:56.000Z,1009.63
2018-05-03T06:38:55.936Z,1009.64
2018-05-03T06:39:55.872Z,1009.68
2018-05-03T06:40:55.816Z,1009.71
2018-05-03T06:41:55.748Z,1009.70
2018-05-03T06:42:55.687Z,1009.67
2018-05-03T06:43:55.698Z,1009.70
2018-05-03T06:44:55.559Z,1009.71
2018-05-03T06:45:55.545Z,1009.72
2018-05-03T06:46:55.441Z,1009.69
2018-05-03T06:47:55.374Z,1009.80
2018-05-03T06:48:55.316Z,1009.83
2018-05-03T06:49:55.251Z,1009.81
2018-05-03T06:50:55.185Z,1009.87
2018-05-03T06:51:55.127Z,1009.86
2018-05-03T06:52:55.061Z,1009.86
2018-05-03T06:53:54.998Z,1009.86
2018-05-03T06:54:54.945Z,1009.91
2018-05-03T06:55:54.873Z,1009.83
2018-05-03T06:56:54.812Z,1009.94
2018-05-03T06:57:54.750Z,1009.93
2018-05-03T06:58:54.688Z,1009.98
2018-05-03T06:59:54.630Z,1010.02
2018-05-03T07:00:54.563Z,1010.01
2018-05-03T07:01:54.505Z,1009.95
2018-05-03T07:02:54.439Z,1009.89
2018-05-03T07:03:54.458Z,1009.91
2018-05-03T07:04:54.316Z,1009.83
2018-05-03T07:05:54.250Z,1009.89
2018-05-03T07:06:54.201Z,1009.87
2018-05-03T07:07:54.131Z,1009.90
2018-05-03T07:08:54.068Z,1009.93
2018-05-03T07:09:54.052Z,1009.92
2018-05-03T07:10:53.945Z,1009.86
2018-05-03T07:11:53.881Z,1009.88
2018-05-03T07:12:53.820Z,1009.87
2018-05-03T07:13:53.759Z,1009.82
2018-05-03T07:14:53.696Z,1009.85
2018-05-03T07:15:53.639Z,1009.93
2018-05-03T07:16:53.578Z,1009.92
2018-05-03T07:17:53.511Z,1009.93
2018-05-03T07:18:53.568Z,1009.95
2018-05-03T07:19:53.475Z,1009.97
2018-05-03T07:20:53.338Z,1010.02
2018-05-03T07:21:53.271Z,1010.04
2018-05-03T07:22:53.204Z,1010.08
2018-05-03T07:23:53.169Z,1010.20
2018-05-03T07:24:53.080Z,1010.23
2018-05-03T07:25:53.018Z,1010.28
2018-05-03T07:26:52.963Z,1010.35
2018-05-03T07:27:52.896Z,1010.38
2018-05-03T07:28:52.833Z,1010.42
2018-05-03T07:29:52.771Z,1010.43
2018-05-03T07:30:52.732Z,1010.47
2018-05-03T07:31:52.650Z,1010.56
2018-05-03T07:32:52.590Z,1010.61
2018-05-03T07:33:52.531Z,1010.63
2018-05-03T07:34:52.476Z,1010.71
2018-05-03T07:35:52.400Z,1010.68
2018-05-03T07:36:52.339Z,1010.74
2018-05-03T07:37:52.280Z,1010.76
2018-05-03T07:38:52.225Z,1010.77
2018-05-03T07:39:52.162Z,1010.78
2018-05-03T07:40:52.143Z,1010.82
2018-05-03T07:41:52.042Z,1010.86
2018-05-03T07:42:51.974Z,1010.84
2018-05-03T07:43:51.913Z,1010.82
2018-05-03T07:44:51.863Z,1010.88
2018-05-03T07:45:51.794Z,1010.91
2018-05-03T07:46:51.732Z,1010.93
2018-05-03T07:47:51.681Z,1010.96
2018-05-03T07:48:51.609Z,1010.91
2018-05-03T07:49:51.550Z,1010.93
2018-05-03T07:50:51.493Z,1010.87
2018-05-03T07:51:51.428Z,1010.91
2018-05-03T07:52:51.382Z,1010.91
2018-05-03T07:53:51.320Z,1010.93
2018-05-03T07:54:51.248Z,1010.93
2018-05-03T07:55:51.187Z,1010.93
2018-05-03T07:56:51.128Z,1010.91
2018-05-03T07:57:51.062Z,1010.87
2018-05-03T07:58:51.013Z,1010.89
2018-05-03T07:59:50.945Z,1010.90
2018-05-03T08:00:50.929Z,1010.89
2018-05-03T08:01:50.829Z,1010.93
2018-05-03T08:02:50.762Z,1010.90
2018-05-03T08:03:50.705Z,1010.94
2018-05-03T08:04:50.640Z,1010.94
2018-05-03T08:05:50.587Z,1010.90
2018-05-03T08:06:50.524Z,1010.97
2018-05-03T08:07:50.458Z,1010.96
2018-05-03T08:08:50.404Z,1010.98
2018-05-03T08:09:50.338Z,1010.92
2018-05-03T08:10:50.276Z,1010.92
2018-05-03T08:11:50.216Z,1010.89
2018-05-03T08:12:50.156Z,1010.89
2018-05-03T08:13:50.096Z,1010.92
2018-05-03T08:14:50.031Z,1010.95
2018-05-03T08:15:49.970Z,1010.99
2018-05-03T08:16:49.911Z,1011.00
2018-05-03T08:17:49.851Z,1010.98
2018-05-03T08:18:49.781Z,1010.97
2018-05-03T08:19:49.725Z,1010.96
2018-05-03T08:20:49.664Z,1010.98
2018-05-03T08:21:49.640Z,1011.04
2018-05-03T08:22:49.544Z,1011.09
2018-05-03T08:23:49.488Z,1011.18
2018-05-03T08:24:49.848Z,1011.17
2018-05-03T08:25:49.361Z,1011.14
2018-05-03T08:26:49.296Z,1011.17
2018-05-03T08:27:49.235Z,1011.15
2018-05-03T08:28:49.176Z,1011.12
2018-05-03T08:29:49.114Z,1011.07
2018-05-03T08:30:49.058Z,1011.05
2018-05-03T08:31:49.052Z,1011.08
2018-05-03T08:32:48.929Z,1011.05
2018-05-03T08:33:48.868Z,1011.02
2018-05-03T08:34:48.808Z,1011.07
2018-05-03T08:35:48.755Z,1011.07
2018-05-03T08:36:48.687Z,1011.08
2018-05-03T08:37:48.627Z,1011.12
2018-05-03T08:38:48.560Z,1011.07
2018-05-03T08:39:48.505Z,1011.10
2018-05-03T08:40:48.445Z,1011.07
2018-05-03T08:41:48.379Z,1011.07
2018-05-03T08:42:48.320Z,1011.03
2018-05-03T08:43:48.261Z,1011.07
2018-05-03T08:44:48.199Z,1011.09
2018-05-03T08:45:48.136Z,1011.08
2018-05-03T08:46:48.074Z,1011.05
2018-05-03T08:47:48.013Z,1011.06
2018-05-03T08:48:47.960Z,1011.06
2018-05-03T08:49:47.894Z,1011.09
2018-05-03T08:50:47.828Z,1011.13
2018-05-03T08:51:47.773Z,1011.17
2018-05-03T08:52:47.716Z,1011.19
2018-05-03T08:53:47.648Z,1011.28
2018-05-03T08:54:47.590Z,1011.33
2018-05-03T08:55:47.570Z,1011.37
2018-05-03T08:56:47.471Z,1011.36
2018-05-03T08:57:47.409Z,1011.36
2018-05-03T08:58:47.339Z,1011.52
2018-05-03T08:59:47.285Z,1011.55
2018-05-03T09:00:47.224Z,1011.64
2018-05-03T09:01:47.241Z,1011.59
2018-05-03T09:02:47.107Z,1011.68
2018-05-03T09:03:47.043Z,1011.68
2018-05-03T09:04:47.084Z,1011.62
2018-05-03T09:05:46.961Z,1011.65
2018-05-03T09:06:46.863Z,1011.70
2018-05-03T09:07:46.827Z,1011.57
2018-05-03T09:08:46.746Z,1011.51
2018-05-03T09:09:46.683Z,1011.55
2018-05-03T09:10:46.621Z,1011.64
2018-05-03T09:11:46.564Z,1011.61
2018-05-03T09:12:46.499Z,1011.62
2018-05-03T09:13:46.438Z,1011.66
2018-05-03T09:14:46.386Z,1011.69
2018-05-03T09:15:46.336Z,1011.69
2018-05-03T09:16:46.260Z,1011.76
2018-05-03T09:17:46.202Z,1011.73
2018-05-03T09:18:46.141Z,1011.76
2018-05-03T09:19:46.075Z,1011.69
2018-05-03T09:20:46.033Z,1011.72
2018-05-03T09:21:45.962Z,1011.73
2018-05-03T09:22:45.904Z,1011.74
2018-05-03T09:23:45.845Z,1011.71
2018-05-03T09:24:45.773Z,1011.72
2018-05-03T09:25:45.717Z,1011.79
2018-05-03T09:26:45.696Z,1011.87
2018-05-03T09:27:45.599Z,1011.82
2018-05-03T09:28:45.542Z,1011.86
2018-05-03T09:29:45.475Z,1011.84
2018-05-03T09:30:45.416Z,1011.92
2018-05-03T09:31:45.355Z,1011.93
2018-05-03T09:32:45.295Z,1011.94
2018-05-03T09:33:45.236Z,1012.06
2018-05-03T09:34:45.192Z,1012.16
2018-05-03T09:35:45.118Z,1012.25
2018-05-03T09:36:45.056Z,1012.35
2018-05-03T09:37:44.997Z,1012.46
2018-05-03T09:38:44.937Z,1012.51
2018-05-03T09:39:44.879Z,1012.58
2018-05-03T09:40:44.815Z,1012.57
2018-05-03T09:41:44.762Z,1012.54
2018-05-03T09:42:44.695Z,1012.53
2018-05-03T09:43:44.643Z,1012.54
2018-05-03T09:44:44.594Z,1012.50
2018-05-03T09:45:44.516Z,1012.51
2018-05-03T09:46:44.468Z,1012.49
2018-05-03T09:47:44.411Z,1012.56
2018-05-03T09:48:44.340Z,1012.56
2018-05-03T09:49:44.285Z,1012.57
2018-05-03T09:50:44.221Z,1012.53
2018-05-03T09:51:44.163Z,1012.58
2018-05-03T09:52:44.109Z,1012.56
2018-05-03T09:53:44.052Z,1012.54
2018-05-03T09:54:43.987Z,1012.47
2018-05-03T09:55:43.928Z,1012.41
2018-05-03T09:56:43.868Z,1012.35
2018-05-03T09:57:43.819Z,1012.40
2018-05-03T09:58:43.757Z,1012.34
2018-05-03T09:59:43.696Z,1012.25
2018-05-03T10:00:43.644Z,1012.21
2018-05-03T10:01:43.585Z,1012.21
2018-05-03T10:02:43.522Z,1012.26
2018-05-03T10:03:43.470Z,1012.20
2018-05-03T10:04:43.426Z,1012.17
2018-05-03T10:05:43.351Z,1012.18
2018-05-03T10:06:43.295Z,1012.22
2018-05-03T10:07:43.239Z,1012.22
2018-05-03T10:08:43.176Z,1012.24
2018-05-03T10:09:43.122Z,1012.26
2018-05-03T10:10:43.068Z,1012.28
2018-05-03T10:11:43.009Z,1012.29
2018-05-03T10:12:42.949Z,1012.32
2018-05-03T10:13:42.893Z,1012.23
2018-05-03T10:14:42.954Z,1012.24
2018-05-03T10:15:42.769Z,1012.22
2018-05-03T10:16:42.718Z,1012.28
2018-05-03T10:17:42.654Z,1012.24
2018-05-03T10:18:42.602Z,1012.24
2018-05-03T10:19:42.539Z,1012.27
2018-05-03T10:20:42.485Z,1012.29
2018-05-03T10:21:42.422Z,1012.31
2018-05-03T10:22:42.359Z,1012.34
2018-05-03T10:23:42.301Z,1012.25
2018-05-03T10:24:42.246Z,1012.26
2018-05-03T10:25:42.199Z,1012.27
2018-05-03T10:26:42.128Z,1012.30
2018-05-03T10:27:42.065Z,1012.35
2018-05-03T10:28:42.006Z,1012.33
2018-05-03T10:29:41.951Z,1012.35
2018-05-03T10:30:41.893Z,1012.33
2018-05-03T10:31:41.830Z,1012.34
2018-05-03T10:32:41.771Z,1012.37
2018-05-03T10:33:41.722Z,1012.45
2018-05-03T10:34:41.665Z,1012.40
2018-05-03T10:35:41.667Z,1012.43
2018-05-03T10:36:41.535Z,1012.41
2018-05-03T10:37:41.479Z,1012.45
2018-05-03T10:38:41.418Z,1012.43
2018-05-03T10:39:41.382Z,1012.42
2018-05-03T10:40:41.308Z,1012.44
2018-05-03T10:41:41.240Z,1012.45
2018-05-03T10:42:41.188Z,1012.44
2018-05-03T10:43:41.122Z,1012.49
2018-05-03T10:44:41.063Z,1012.55
2018-05-03T10:45:41.002Z,1012.50
2018-05-03T10:46:40.951Z,1012.52
2018-05-03T10:47:40.883Z,1012.54
2018-05-03T10:48:40.935Z,1012.54
2018-05-03T10:49:40.765Z,1012.56
2018-05-03T10:50:40.706Z,1012.52
2018-05-03T10:51:40.659Z,1012.45
2018-05-03T10:52:40.595Z,1012.50
2018-05-03T10:53:40.539Z,1012.51
2018-05-03T10:54:40.466Z,1012.57
2018-05-03T10:55:40.412Z,1012.57
2018-05-03T10:56:40.367Z,1012.59
2018-05-03T10:57:40.293Z,1012.63
2018-05-03T10:58:40.235Z,1012.67
2018-05-03T10:59:40.180Z,1012.74
2018-05-03T11:00:40.121Z,1012.76
2018-05-03T11:01:40.058Z,1012.80
2018-05-03T11:02:40.007Z,1012.79
2018-05-03T11:03:39.946Z,1012.82
2018-05-03T11:04:39.887Z,1012.80
2018-05-03T11:05:39.825Z,1012.88
2018-05-03T11:06:39.769Z,1012.98
2018-05-03T11:07:39.711Z,1013.01
2018-05-03T11:08:39.655Z,1012.97
2018-05-03T11:09:39.597Z,1012.98
2018-05-03T11:10:39.539Z,1013.04
2018-05-03T11:11:39.492Z,1013.03
2018-05-03T11:12:39.426Z,1012.96
2018-05-03T11:13:39.369Z,1012.91
2018-05-03T11:14:39.316Z,1012.86
2018-05-03T11:15:39.261Z,1012.97
2018-05-03T11:16:39.271Z,1013.02
2018-05-03T11:17:39.155Z,1013.17
2018-05-03T11:18:39.096Z,1013.47
2018-05-03T11:19:39.042Z,1013.76
2018-05-03T11:20:38.997Z,1013.90
2018-05-03T11:21:38.935Z,1013.95
2018-05-03T11:22:38.893Z,1013.90
2018-05-03T11:23:38.840Z,1014.05
2018-05-03T11:24:38.773Z,1014.17
2018-05-03T11:25:38.731Z,1014.32
2018-05-03T11:26:38.667Z,1014.08
2018-05-03T11:27:38.652Z,1013.74
2018-05-03T11:28:38.569Z,1013.76
2018-05-03T11:29:38.514Z,1013.64
2018-05-03T11:30:38.492Z,1013.85
2018-05-03T11:31:38.412Z,1014.02
2018-05-03T11:32:38.360Z,1014.38
2018-05-03T11:33:38.302Z,1013.92
2018-05-03T11:34:38.262Z,1014.07
2018-05-03T11:35:38.203Z,1013.67
2018-05-03T11:36:38.157Z,1013.95
2018-05-03T11:37:38.100Z,1014.26
2018-05-03T11:38:38.048Z,1013.49
2018-05-03T11:41:11.107Z,1014.28
2018-05-03T11:42:10.982Z,1014.38
2018-05-03T11:44:05.314Z,1014.51
2018-05-03T11:45:05.228Z,1014.43
2018-05-03T11:46:05.194Z,1014.39
2018-05-03T11:47:05.134Z,1013.72
2018-05-03T11:48:05.078Z,1013.60
2018-05-03T11:49:05.045Z,1013.50
2018-05-03T11:50:04.981Z,1014.16
2018-05-03T11:51:04.931Z,1014.14
2018-05-03T11:52:04.919Z,1014.10
2018-05-03T11:53:04.846Z,1013.81
2018-05-03T11:54:04.781Z,1013.91
2018-05-03T11:55:04.730Z,1013.53
2018-05-03T11:56:04.688Z,1013.74
2018-05-03T11:57:04.634Z,1014.30
2018-05-03T11:58:04.583Z,1014.21
2018-05-03T11:59:04.630Z,1014.27
2018-05-03T12:00:04.485Z,1014.35
2018-05-03T12:01:04.436Z,1014.38
2018-05-03T12:02:04.386Z,1014.41
2018-05-03T12:03:04.337Z,1014.44
2018-05-03T12:04:04.301Z,1014.46
2018-05-03T12:05:04.243Z,1014.49
2018-05-03T12:06:04.276Z,1014.50
2018-05-03T12:07:04.145Z,1014.49